sensor_id;sensor_type;location;lat;lon;timestamp;temperature;humidity
20070;DHT22;10195;50.868;4.382;2023-11-21T00:00:00;11.20;99.90
20070;DHT22;10195;50.868;4.382;2023-11-21T00:02:26;11.20;99.90
20070;DHT22;10195;50.868;4.382;2023-11-21T00:04:55;11.20;99.90
20070;DHT22;10195;50.868;4.382;2023-11-21T00:07:21;11.20;99.90
20070;DHT22;10195;50.868;4.382;2023-11-21T00:09:47;11.20;99.90
20070;DHT22;10195;50.868;4.382;2023-11-21T00:12:13;11.20;99.90
20070;DHT22;10195;50.868;4.382;2023-11-21T00:14:41;11.20;99.90
20070;DHT22;10195;50.868;4.382;2023-11-21T00:17:07;11.10;99.90
20070;DHT22;10195;50.868;4.382;2023-11-21T00:19:33;10.90;99.90
20070;DHT22;10195;50.868;4.382;2023-11-21T00:22:00;10.90;99.90
20070;DHT22;10195;50.868;4.382;2023-11-21T00:24:25;10.90;99.90
20070;DHT22;10195;50.868;4.382;2023-11-21T00:26:51;11.00;99.90
20070;DHT22;10195;50.868;4.382;2023-11-21T00:29:18;10.90;99.90
20070;DHT22;10195;50.868;4.382;2023-11-21T00:31:44;10.80;99.90
20070;DHT22;10195;50.868;4.382;2023-11-21T00:34:12;10.80;99.90
20070;DHT22;10195;50.868;4.382;2023-11-21T00:36:37;10.80;99.90
20070;DHT22;10195;50.868;4.382;2023-11-21T00:39:03;10.80;99.90
20070;DHT22;10195;50.868;4.382;2023-11-21T00:41:31;10.70;99.90
20070;DHT22;10195;50.868;4.382;2023-11-21T00:43:57;10.70;99.90
20070;DHT22;10195;50.868;4.382;2023-11-21T00:46:22;10.70;99.90
20070;DHT22;10195;50.868;4.382;2023-11-21T00:48:49;10.60;99.90
20070;DHT22;10195;50.868;4.382;2023-11-21T00:51:15;10.60;99.90
20070;DHT22;10195;50.868;4.382;2023-11-21T00:53:41;10.50;99.90
20070;DHT22;10195;50.868;4.382;2023-11-21T00:56:06;10.40;99.90
20070;DHT22;10195;50.868;4.382;2023-11-21T00:58:34;10.40;99.90
20070;DHT22;10195;50.868;4.382;2023-11-21T01:00:59;10.30;99.90
20070;DHT22;10195;50.868;4.382;2023-11-21T01:03:25;10.30;99.90
20070;DHT22;10195;50.868;4.382;2023-11-21T01:05:51;10.40;99.90
20070;DHT22;10195;50.868;4.382;2023-11-21T01:08:16;10.40;99.90
20070;DHT22;10195;50.868;4.382;2023-11-21T01:10:42;10.40;99.90
20070;DHT22;10195;50.868;4.382;2023-11-21T01:13:08;10.50;99.90
20070;DHT22;10195;50.868;4.382;2023-11-21T01:15:34;10.50;99.90
20070;DHT22;10195;50.868;4.382;2023-11-21T01:17:59;10.60;99.90
20070;DHT22;10195;50.868;4.382;2023-11-21T01:20:25;10.60;99.90
20070;DHT22;10195;50.868;4.382;2023-11-21T01:22:51;10.60;99.90
20070;DHT22;10195;50.868;4.382;2023-11-21T01:25:19;10.60;99.90
20070;DHT22;10195;50.868;4.382;2023-11-21T01:27:46;10.60;99.90
20070;DHT22;10195;50.868;4.382;2023-11-21T01:30:12;10.60;99.90
20070;DHT22;10195;50.868;4.382;2023-11-21T01:32:38;10.60;99.90
20070;DHT22;10195;50.868;4.382;2023-11-21T01:35:05;10.60;99.90
20070;DHT22;10195;50.868;4.382;2023-11-21T01:37:32;10.70;99.90
20070;DHT22;10195;50.868;4.382;2023-11-21T01:39:58;10.70;99.90
20070;DHT22;10195;50.868;4.382;2023-11-21T01:42:24;10.80;99.90
20070;DHT22;10195;50.868;4.382;2023-11-21T01:44:50;10.70;99.90
20070;DHT22;10195;50.868;4.382;2023-11-21T01:47:16;10.80;99.90
20070;DHT22;10195;50.868;4.382;2023-11-21T01:49:45;10.90;99.90
20070;DHT22;10195;50.868;4.382;2023-11-21T01:52:12;11.00;99.90
20070;DHT22;10195;50.868;4.382;2023-11-21T01:54:38;10.90;99.90
20070;DHT22;10195;50.868;4.382;2023-11-21T01:57:05;10.90;99.90
20070;DHT22;10195;50.868;4.382;2023-11-21T01:59:38;10.90;99.90
20070;DHT22;10195;50.868;4.382;2023-11-21T02:02:08;10.90;99.90
20070;DHT22;10195;50.868;4.382;2023-11-21T02:04:35;10.80;99.90
20070;DHT22;10195;50.868;4.382;2023-11-21T02:07:02;10.70;99.90
20070;DHT22;10195;50.868;4.382;2023-11-21T02:09:31;10.80;99.90
20070;DHT22;10195;50.868;4.382;2023-11-21T02:11:57;10.90;99.90
20070;DHT22;10195;50.868;4.382;2023-11-21T02:14:24;10.90;99.90
20070;DHT22;10195;50.868;4.382;2023-11-21T02:16:52;10.90;99.90
20070;DHT22;10195;50.868;4.382;2023-11-21T02:19:19;10.80;99.90
20070;DHT22;10195;50.868;4.382;2023-11-21T02:21:51;10.80;99.90
20070;DHT22;10195;50.868;4.382;2023-11-21T02:24:23;10.90;99.90
20070;DHT22;10195;50.868;4.382;2023-11-21T02:26:50;10.90;99.90
20070;DHT22;10195;50.868;4.382;2023-11-21T02:29:19;11.00;99.90
20070;DHT22;10195;50.868;4.382;2023-11-21T02:31:48;11.00;99.90
20070;DHT22;10195;50.868;4.382;2023-11-21T02:34:17;11.00;99.90
20070;DHT22;10195;50.868;4.382;2023-11-21T02:36:44;11.00;99.90
20070;DHT22;10195;50.868;4.382;2023-11-21T02:39:13;11.00;99.90
20070;DHT22;10195;50.868;4.382;2023-11-21T02:41:39;11.10;99.90
20070;DHT22;10195;50.868;4.382;2023-11-21T02:44:06;11.00;99.90
20070;DHT22;10195;50.868;4.382;2023-11-21T02:46:35;11.00;99.90
20070;DHT22;10195;50.868;4.382;2023-11-21T02:49:04;11.00;99.90
20070;DHT22;10195;50.868;4.382;2023-11-21T02:51:32;10.90;99.90
20070;DHT22;10195;50.868;4.382;2023-11-21T02:53:57;10.80;99.90
20070;DHT22;10195;50.868;4.382;2023-11-21T02:56:27;10.80;99.90
20070;DHT22;10195;50.868;4.382;2023-11-21T02:58:56;10.90;99.90
20070;DHT22;10195;50.868;4.382;2023-11-21T03:01:22;11.00;99.90
20070;DHT22;10195;50.868;4.382;2023-11-21T03:03:49;11.10;99.90
20070;DHT22;10195;50.868;4.382;2023-11-21T03:06:19;11.10;99.90
20070;DHT22;10195;50.868;4.382;2023-11-21T03:08:45;11.10;99.90
20070;DHT22;10195;50.868;4.382;2023-11-21T03:11:12;11.10;99.90
20070;DHT22;10195;50.868;4.382;2023-11-21T03:13:41;11.20;99.90
20070;DHT22;10195;50.868;4.382;2023-11-21T03:16:10;11.20;99.90
20070;DHT22;10195;50.868;4.382;2023-11-21T03:18:39;11.10;99.90
20070;DHT22;10195;50.868;4.382;2023-11-21T03:21:06;10.90;99.90
20070;DHT22;10195;50.868;4.382;2023-11-21T03:23:34;10.90;99.90
20070;DHT22;10195;50.868;4.382;2023-11-21T03:26:01;10.90;99.90
20070;DHT22;10195;50.868;4.382;2023-11-21T03:28:27;10.90;99.90
20070;DHT22;10195;50.868;4.382;2023-11-21T03:30:53;11.00;99.90
20070;DHT22;10195;50.868;4.382;2023-11-21T03:33:19;11.10;99.90
20070;DHT22;10195;50.868;4.382;2023-11-21T03:35:44;11.00;99.90
20070;DHT22;10195;50.868;4.382;2023-11-21T03:38:10;11.10;99.90
20070;DHT22;10195;50.868;4.382;2023-11-21T03:40:36;11.10;99.90
20070;DHT22;10195;50.868;4.382;2023-11-21T03:43:02;11.10;99.90
20070;DHT22;10195;50.868;4.382;2023-11-21T03:45:28;11.10;99.90
20070;DHT22;10195;50.868;4.382;2023-11-21T03:47:54;11.10;99.90
20070;DHT22;10195;50.868;4.382;2023-11-21T03:50:19;11.10;99.90
20070;DHT22;10195;50.868;4.382;2023-11-21T03:52:45;11.10;99.90
20070;DHT22;10195;50.868;4.382;2023-11-21T03:55:11;11.20;99.90
20070;DHT22;10195;50.868;4.382;2023-11-21T03:57:36;11.20;99.90
20070;DHT22;10195;50.868;4.382;2023-11-21T04:00:03;11.20;99.90
20070;DHT22;10195;50.868;4.382;2023-11-21T04:02:33;11.20;99.90
20070;DHT22;10195;50.868;4.382;2023-11-21T04:04:59;11.10;99.90
20070;DHT22;10195;50.868;4.382;2023-11-21T04:07:24;11.00;99.90
20070;DHT22;10195;50.868;4.382;2023-11-21T04:09:50;11.10;99.90
20070;DHT22;10195;50.868;4.382;2023-11-21T04:12:16;11.20;99.90
20070;DHT22;10195;50.868;4.382;2023-11-21T04:14:41;11.20;99.90
20070;DHT22;10195;50.868;4.382;2023-11-21T04:17:07;11.10;99.90
20070;DHT22;10195;50.868;4.382;2023-11-21T04:19:32;11.10;99.90
20070;DHT22;10195;50.868;4.382;2023-11-21T04:21:58;11.10;99.90
20070;DHT22;10195;50.868;4.382;2023-11-21T04:24:24;11.20;99.90
20070;DHT22;10195;50.868;4.382;2023-11-21T04:26:49;11.10;99.90
20070;DHT22;10195;50.868;4.382;2023-11-21T04:29:15;11.20;99.90
20070;DHT22;10195;50.868;4.382;2023-11-21T04:31:41;11.20;99.90
20070;DHT22;10195;50.868;4.382;2023-11-21T04:34:07;11.20;99.90
20070;DHT22;10195;50.868;4.382;2023-11-21T04:36:33;11.20;99.90
20070;DHT22;10195;50.868;4.382;2023-11-21T04:39:00;11.20;99.90
20070;DHT22;10195;50.868;4.382;2023-11-21T04:41:26;11.20;99.90
20070;DHT22;10195;50.868;4.382;2023-11-21T04:43:51;11.20;99.90
20070;DHT22;10195;50.868;4.382;2023-11-21T04:46:17;11.10;99.90
20070;DHT22;10195;50.868;4.382;2023-11-21T04:48:43;11.00;99.90
20070;DHT22;10195;50.868;4.382;2023-11-21T04:51:08;11.10;99.90
20070;DHT22;10195;50.868;4.382;2023-11-21T04:53:34;11.10;99.90
20070;DHT22;10195;50.868;4.382;2023-11-21T04:56:00;11.20;99.90
20070;DHT22;10195;50.868;4.382;2023-11-21T04:58:26;11.20;99.90
20070;DHT22;10195;50.868;4.382;2023-11-21T05:00:51;11.30;99.90
20070;DHT22;10195;50.868;4.382;2023-11-21T05:03:17;11.20;99.90
20070;DHT22;10195;50.868;4.382;2023-11-21T05:05:43;11.20;99.90
20070;DHT22;10195;50.868;4.382;2023-11-21T05:08:09;11.20;99.90
20070;DHT22;10195;50.868;4.382;2023-11-21T05:10:34;11.20;99.90
20070;DHT22;10195;50.868;4.382;2023-11-21T05:13:03;11.30;99.90
20070;DHT22;10195;50.868;4.382;2023-11-21T05:15:29;11.30;99.90
20070;DHT22;10195;50.868;4.382;2023-11-21T05:17:54;11.40;99.90
20070;DHT22;10195;50.868;4.382;2023-11-21T05:20:20;11.40;99.90
20070;DHT22;10195;50.868;4.382;2023-11-21T05:22:49;11.50;99.90
20070;DHT22;10195;50.868;4.382;2023-11-21T05:25:16;11.30;99.90
20070;DHT22;10195;50.868;4.382;2023-11-21T05:27:44;11.20;99.90
20070;DHT22;10195;50.868;4.382;2023-11-21T05:30:10;11.20;99.90
20070;DHT22;10195;50.868;4.382;2023-11-21T05:32:38;11.20;99.90
20070;DHT22;10195;50.868;4.382;2023-11-21T05:35:04;11.30;99.90
20070;DHT22;10195;50.868;4.382;2023-11-21T05:37:35;11.30;99.90
20070;DHT22;10195;50.868;4.382;2023-11-21T05:40:01;11.30;99.90
20070;DHT22;10195;50.868;4.382;2023-11-21T05:42:32;11.30;99.90
20070;DHT22;10195;50.868;4.382;2023-11-21T05:44:57;11.30;99.90
20070;DHT22;10195;50.868;4.382;2023-11-21T05:47:25;11.20;99.90
20070;DHT22;10195;50.868;4.382;2023-11-21T05:49:53;11.20;99.90
20070;DHT22;10195;50.868;4.382;2023-11-21T05:52:39;11.30;99.90
20070;DHT22;10195;50.868;4.382;2023-11-21T05:55:06;11.30;99.90
20070;DHT22;10195;50.868;4.382;2023-11-21T05:57:36;11.30;99.90
20070;DHT22;10195;50.868;4.382;2023-11-21T06:00:06;11.40;99.90
20070;DHT22;10195;50.868;4.382;2023-11-21T06:02:45;11.40;99.90
20070;DHT22;10195;50.868;4.382;2023-11-21T06:05:11;11.40;99.90
20070;DHT22;10195;50.868;4.382;2023-11-21T06:07:37;11.40;99.90
20070;DHT22;10195;50.868;4.382;2023-11-21T06:10:04;11.40;99.90
20070;DHT22;10195;50.868;4.382;2023-11-21T06:12:37;11.50;99.90
20070;DHT22;10195;50.868;4.382;2023-11-21T06:15:04;11.10;99.90
20070;DHT22;10195;50.868;4.382;2023-11-21T06:17:34;10.90;99.90
20070;DHT22;10195;50.868;4.382;2023-11-21T06:20:02;10.80;99.90
20070;DHT22;10195;50.868;4.382;2023-11-21T06:22:35;10.90;99.90
20070;DHT22;10195;50.868;4.382;2023-11-21T06:25:01;10.80;99.90
20070;DHT22;10195;50.868;4.382;2023-11-21T06:27:28;10.80;99.90
20070;DHT22;10195;50.868;4.382;2023-11-21T06:29:54;10.80;99.90
20070;DHT22;10195;50.868;4.382;2023-11-21T06:32:19;10.80;99.90
20070;DHT22;10195;50.868;4.382;2023-11-21T06:34:48;10.90;99.90
20070;DHT22;10195;50.868;4.382;2023-11-21T06:37:15;11.00;99.90
20070;DHT22;10195;50.868;4.382;2023-11-21T06:39:40;11.20;99.90
20070;DHT22;10195;50.868;4.382;2023-11-21T06:42:07;11.30;99.90
20070;DHT22;10195;50.868;4.382;2023-11-21T06:44:32;11.30;99.90
20070;DHT22;10195;50.868;4.382;2023-11-21T06:46:59;11.20;99.90
20070;DHT22;10195;50.868;4.382;2023-11-21T06:49:25;11.30;99.90
20070;DHT22;10195;50.868;4.382;2023-11-21T06:51:51;11.40;99.90
20070;DHT22;10195;50.868;4.382;2023-11-21T06:54:16;11.50;99.90
20070;DHT22;10195;50.868;4.382;2023-11-21T06:56:42;11.50;99.90
20070;DHT22;10195;50.868;4.382;2023-11-21T06:59:08;11.40;99.90
20070;DHT22;10195;50.868;4.382;2023-11-21T07:01:34;11.50;99.90
20070;DHT22;10195;50.868;4.382;2023-11-21T07:04:09;11.50;99.90
20070;DHT22;10195;50.868;4.382;2023-11-21T07:06:35;11.50;99.90
20070;DHT22;10195;50.868;4.382;2023-11-21T07:09:01;11.50;99.90
20070;DHT22;10195;50.868;4.382;2023-11-21T07:11:27;11.40;99.90
20070;DHT22;10195;50.868;4.382;2023-11-21T07:13:52;11.50;99.90
20070;DHT22;10195;50.868;4.382;2023-11-21T07:16:18;11.50;99.90
20070;DHT22;10195;50.868;4.382;2023-11-21T07:18:44;11.40;99.90
20070;DHT22;10195;50.868;4.382;2023-11-21T07:21:11;11.40;99.90
20070;DHT22;10195;50.868;4.382;2023-11-21T07:23:43;11.40;99.90
20070;DHT22;10195;50.868;4.382;2023-11-21T07:26:09;11.20;99.90
20070;DHT22;10195;50.868;4.382;2023-11-21T07:28:36;11.30;99.90
20070;DHT22;10195;50.868;4.382;2023-11-21T07:31:02;11.20;99.90
20070;DHT22;10195;50.868;4.382;2023-11-21T07:33:28;11.20;99.90
20070;DHT22;10195;50.868;4.382;2023-11-21T07:35:54;11.40;99.90
20070;DHT22;10195;50.868;4.382;2023-11-21T07:38:19;11.30;99.90
20070;DHT22;10195;50.868;4.382;2023-11-21T07:40:45;11.50;99.90
20070;DHT22;10195;50.868;4.382;2023-11-21T07:43:11;11.50;99.90
20070;DHT22;10195;50.868;4.382;2023-11-21T07:45:37;11.50;99.90
20070;DHT22;10195;50.868;4.382;2023-11-21T07:48:03;11.60;99.90
20070;DHT22;10195;50.868;4.382;2023-11-21T07:50:30;11.50;99.90
20070;DHT22;10195;50.868;4.382;2023-11-21T07:52:57;11.50;99.90
20070;DHT22;10195;50.868;4.382;2023-11-21T07:55:23;11.40;99.90
20070;DHT22;10195;50.868;4.382;2023-11-21T07:57:50;11.30;99.90
20070;DHT22;10195;50.868;4.382;2023-11-21T08:00:16;11.30;99.90
20070;DHT22;10195;50.868;4.382;2023-11-21T08:02:42;11.30;99.90
20070;DHT22;10195;50.868;4.382;2023-11-21T08:05:08;11.40;99.90
20070;DHT22;10195;50.868;4.382;2023-11-21T08:07:34;11.50;99.90
20070;DHT22;10195;50.868;4.382;2023-11-21T08:10:00;11.60;99.90
20070;DHT22;10195;50.868;4.382;2023-11-21T08:12:26;11.60;99.90
20070;DHT22;10195;50.868;4.382;2023-11-21T08:14:53;11.60;99.90
20070;DHT22;10195;50.868;4.382;2023-11-21T08:17:19;11.50;99.90
20070;DHT22;10195;50.868;4.382;2023-11-21T08:19:45;11.50;99.90
20070;DHT22;10195;50.868;4.382;2023-11-21T08:22:15;11.60;99.90
20070;DHT22;10195;50.868;4.382;2023-11-21T08:24:42;11.60;99.90
20070;DHT22;10195;50.868;4.382;2023-11-21T08:27:08;11.60;99.90
20070;DHT22;10195;50.868;4.382;2023-11-21T08:29:33;11.70;99.90
20070;DHT22;10195;50.868;4.382;2023-11-21T08:31:59;11.70;99.90
20070;DHT22;10195;50.868;4.382;2023-11-21T08:34:25;11.80;99.90
20070;DHT22;10195;50.868;4.382;2023-11-21T08:36:51;11.80;99.90
20070;DHT22;10195;50.868;4.382;2023-11-21T08:39:16;11.80;99.90
20070;DHT22;10195;50.868;4.382;2023-11-21T08:41:44;11.70;99.90
20070;DHT22;10195;50.868;4.382;2023-11-21T08:44:10;11.70;99.90
20070;DHT22;10195;50.868;4.382;2023-11-21T08:46:36;11.80;99.90
20070;DHT22;10195;50.868;4.382;2023-11-21T08:49:03;11.70;99.90
20070;DHT22;10195;50.868;4.382;2023-11-21T08:51:29;11.70;99.90
20070;DHT22;10195;50.868;4.382;2023-11-21T08:53:55;11.70;99.90
20070;DHT22;10195;50.868;4.382;2023-11-21T08:56:24;11.70;99.90
20070;DHT22;10195;50.868;4.382;2023-11-21T08:58:50;11.80;99.90
20070;DHT22;10195;50.868;4.382;2023-11-21T09:01:16;11.90;99.90
20070;DHT22;10195;50.868;4.382;2023-11-21T09:03:42;11.90;99.90
20070;DHT22;10195;50.868;4.382;2023-11-21T09:06:09;12.00;99.90
20070;DHT22;10195;50.868;4.382;2023-11-21T09:08:35;11.90;99.90
20070;DHT22;10195;50.868;4.382;2023-11-21T09:11:01;12.00;99.90
20070;DHT22;10195;50.868;4.382;2023-11-21T09:13:26;12.00;99.90
20070;DHT22;10195;50.868;4.382;2023-11-21T09:15:52;12.10;99.90
20070;DHT22;10195;50.868;4.382;2023-11-21T09:18:18;12.10;99.90
20070;DHT22;10195;50.868;4.382;2023-11-21T09:20:44;12.10;99.90
20070;DHT22;10195;50.868;4.382;2023-11-21T09:23:10;12.10;99.90
20070;DHT22;10195;50.868;4.382;2023-11-21T09:25:35;12.00;99.90
20070;DHT22;10195;50.868;4.382;2023-11-21T09:28:03;12.00;99.90
20070;DHT22;10195;50.868;4.382;2023-11-21T09:30:34;12.10;99.90
20070;DHT22;10195;50.868;4.382;2023-11-21T09:33:01;12.20;99.90
20070;DHT22;10195;50.868;4.382;2023-11-21T09:35:26;12.30;99.90
20070;DHT22;10195;50.868;4.382;2023-11-21T09:37:53;12.20;99.90
20070;DHT22;10195;50.868;4.382;2023-11-21T09:40:22;12.30;99.90
20070;DHT22;10195;50.868;4.382;2023-11-21T09:45:25;12.20;99.90
20070;DHT22;10195;50.868;4.382;2023-11-21T09:47:53;12.10;99.90
20070;DHT22;10195;50.868;4.382;2023-11-21T09:50:20;12.10;99.90
20070;DHT22;10195;50.868;4.382;2023-11-21T09:52:57;12.20;99.90
20070;DHT22;10195;50.868;4.382;2023-11-21T09:55:26;12.20;99.90
20070;DHT22;10195;50.868;4.382;2023-11-21T09:57:56;12.00;99.90
20070;DHT22;10195;50.868;4.382;2023-11-21T10:00:23;11.80;99.90
20070;DHT22;10195;50.868;4.382;2023-11-21T10:02:49;11.60;99.90
20070;DHT22;10195;50.868;4.382;2023-11-21T10:05:16;11.50;99.90
20070;DHT22;10195;50.868;4.382;2023-11-21T10:07:46;11.40;99.90
20070;DHT22;10195;50.868;4.382;2023-11-21T10:10:13;11.50;99.90
20070;DHT22;10195;50.868;4.382;2023-11-21T10:12:44;11.40;99.90
20070;DHT22;10195;50.868;4.382;2023-11-21T10:15:12;11.30;99.90
20070;DHT22;10195;50.868;4.382;2023-11-21T10:17:43;11.20;99.90
20070;DHT22;10195;50.868;4.382;2023-11-21T10:20:14;11.00;99.90
20070;DHT22;10195;50.868;4.382;2023-11-21T10:22:43;10.90;99.90
20070;DHT22;10195;50.868;4.382;2023-11-21T10:25:09;11.00;99.90
20070;DHT22;10195;50.868;4.382;2023-11-21T10:27:36;11.10;99.90
20070;DHT22;10195;50.868;4.382;2023-11-21T10:30:05;11.30;99.90
20070;DHT22;10195;50.868;4.382;2023-11-21T10:32:31;11.50;99.90
20070;DHT22;10195;50.868;4.382;2023-11-21T10:35:00;11.80;99.90
20070;DHT22;10195;50.868;4.382;2023-11-21T10:37:27;11.70;99.90
20070;DHT22;10195;50.868;4.382;2023-11-21T10:39:58;11.80;99.90
20070;DHT22;10195;50.868;4.382;2023-11-21T10:42:24;11.70;99.90
20070;DHT22;10195;50.868;4.382;2023-11-21T10:44:50;11.80;99.90
20070;DHT22;10195;50.868;4.382;2023-11-21T10:47:16;11.60;99.90
20070;DHT22;10195;50.868;4.382;2023-11-21T10:49:44;11.50;99.90
20070;DHT22;10195;50.868;4.382;2023-11-21T10:52:13;11.40;99.90
20070;DHT22;10195;50.868;4.382;2023-11-21T10:54:43;11.70;99.90
20070;DHT22;10195;50.868;4.382;2023-11-21T10:57:10;11.80;99.90
20070;DHT22;10195;50.868;4.382;2023-11-21T10:59:36;11.90;99.90
20070;DHT22;10195;50.868;4.382;2023-11-21T11:02:23;12.10;99.90
20070;DHT22;10195;50.868;4.382;2023-11-21T11:04:52;12.20;99.90
20070;DHT22;10195;50.868;4.382;2023-11-21T11:07:17;12.40;99.90
20070;DHT22;10195;50.868;4.382;2023-11-21T11:09:44;12.40;99.90
20070;DHT22;10195;50.868;4.382;2023-11-21T11:12:11;12.30;99.90
20070;DHT22;10195;50.868;4.382;2023-11-21T11:14:40;12.30;99.90
20070;DHT22;10195;50.868;4.382;2023-11-21T11:17:07;12.30;99.90
20070;DHT22;10195;50.868;4.382;2023-11-21T11:19:34;12.20;99.90
20070;DHT22;10195;50.868;4.382;2023-11-21T11:28:14;12.40;99.90
20070;DHT22;10195;50.868;4.382;2023-11-21T11:36:17;13.00;99.90
20070;DHT22;10195;50.868;4.382;2023-11-21T11:38:46;13.00;99.90
20070;DHT22;10195;50.868;4.382;2023-11-21T11:41:12;12.80;99.90
20070;DHT22;10195;50.868;4.382;2023-11-21T11:43:38;12.70;99.90
20070;DHT22;10195;50.868;4.382;2023-11-21T11:46:11;12.60;99.90
20070;DHT22;10195;50.868;4.382;2023-11-21T11:48:40;12.20;99.90
20070;DHT22;10195;50.868;4.382;2023-11-21T11:51:10;12.00;99.90
20070;DHT22;10195;50.868;4.382;2023-11-21T11:53:44;12.00;99.90
20070;DHT22;10195;50.868;4.382;2023-11-21T11:56:32;11.90;99.90
20070;DHT22;10195;50.868;4.382;2023-11-21T11:59:04;11.90;99.90
20070;DHT22;10195;50.868;4.382;2023-11-21T12:01:33;11.80;99.90
20070;DHT22;10195;50.868;4.382;2023-11-21T12:06:41;11.70;99.90
20070;DHT22;10195;50.868;4.382;2023-11-21T12:09:18;11.70;99.90
20070;DHT22;10195;50.868;4.382;2023-11-21T12:11:46;11.80;99.90
20070;DHT22;10195;50.868;4.382;2023-11-21T12:14:13;11.80;99.90
20070;DHT22;10195;50.868;4.382;2023-11-21T12:16:41;11.90;99.90
20070;DHT22;10195;50.868;4.382;2023-11-21T12:19:11;11.90;99.90
20070;DHT22;10195;50.868;4.382;2023-11-21T12:21:37;11.80;99.90
20070;DHT22;10195;50.868;4.382;2023-11-21T12:24:03;11.70;99.90
20070;DHT22;10195;50.868;4.382;2023-11-21T12:26:29;11.60;99.90
20070;DHT22;10195;50.868;4.382;2023-11-21T12:28:55;11.70;99.90
20070;DHT22;10195;50.868;4.382;2023-11-21T12:31:24;11.80;99.90
20070;DHT22;10195;50.868;4.382;2023-11-21T12:33:50;11.80;99.90
20070;DHT22;10195;50.868;4.382;2023-11-21T12:36:16;11.90;99.90
20070;DHT22;10195;50.868;4.382;2023-11-21T12:38:42;11.90;99.90
20070;DHT22;10195;50.868;4.382;2023-11-21T12:41:09;11.90;99.90
20070;DHT22;10195;50.868;4.382;2023-11-21T12:43:38;11.90;99.90
20070;DHT22;10195;50.868;4.382;2023-11-21T12:46:08;12.00;99.90
20070;DHT22;10195;50.868;4.382;2023-11-21T12:48:38;12.00;99.90
20070;DHT22;10195;50.868;4.382;2023-11-21T12:51:11;12.00;99.90
20070;DHT22;10195;50.868;4.382;2023-11-21T12:53:41;11.90;99.90
20070;DHT22;10195;50.868;4.382;2023-11-21T12:56:10;11.80;99.90
20070;DHT22;10195;50.868;4.382;2023-11-21T12:58:37;11.70;99.90
20070;DHT22;10195;50.868;4.382;2023-11-21T13:01:06;11.60;99.90
20070;DHT22;10195;50.868;4.382;2023-11-21T13:03:37;11.60;99.90
20070;DHT22;10195;50.868;4.382;2023-11-21T13:06:04;11.60;99.90
20070;DHT22;10195;50.868;4.382;2023-11-21T13:08:30;11.50;99.90
20070;DHT22;10195;50.868;4.382;2023-11-21T13:10:57;11.50;99.90
20070;DHT22;10195;50.868;4.382;2023-11-21T13:13:23;11.40;99.90
20070;DHT22;10195;50.868;4.382;2023-11-21T13:16:01;11.40;99.90
20070;DHT22;10195;50.868;4.382;2023-11-21T13:18:29;11.40;99.90
20070;DHT22;10195;50.868;4.382;2023-11-21T13:20:58;11.50;99.90
20070;DHT22;10195;50.868;4.382;2023-11-21T13:23:24;11.60;99.90
20070;DHT22;10195;50.868;4.382;2023-11-21T13:25:51;11.60;99.90
20070;DHT22;10195;50.868;4.382;2023-11-21T13:28:17;11.60;99.90
20070;DHT22;10195;50.868;4.382;2023-11-21T13:30:49;11.50;99.90
20070;DHT22;10195;50.868;4.382;2023-11-21T13:33:18;11.40;99.90
20070;DHT22;10195;50.868;4.382;2023-11-21T13:35:53;11.40;99.90
20070;DHT22;10195;50.868;4.382;2023-11-21T13:38:19;11.60;99.90
20070;DHT22;10195;50.868;4.382;2023-11-21T13:40:52;11.60;99.90
20070;DHT22;10195;50.868;4.382;2023-11-21T13:43:24;11.70;99.90
20070;DHT22;10195;50.868;4.382;2023-11-21T13:45:52;11.80;99.90
20070;DHT22;10195;50.868;4.382;2023-11-21T13:48:25;11.70;99.90
20070;DHT22;10195;50.868;4.382;2023-11-21T13:50:57;11.50;99.90
20070;DHT22;10195;50.868;4.382;2023-11-21T13:53:38;11.50;99.90
20070;DHT22;10195;50.868;4.382;2023-11-21T13:56:04;11.50;99.90
20070;DHT22;10195;50.868;4.382;2023-11-21T13:58:30;11.50;99.90
20070;DHT22;10195;50.868;4.382;2023-11-21T14:01:26;11.60;99.90
20070;DHT22;10195;50.868;4.382;2023-11-21T14:04:02;11.60;99.90
20070;DHT22;10195;50.868;4.382;2023-11-21T14:06:49;11.50;99.90
20070;DHT22;10195;50.868;4.382;2023-11-21T14:09:16;11.60;99.90
20070;DHT22;10195;50.868;4.382;2023-11-21T14:11:54;11.40;99.90
20070;DHT22;10195;50.868;4.382;2023-11-21T14:14:25;11.40;99.90
20070;DHT22;10195;50.868;4.382;2023-11-21T14:16:51;11.30;99.90
20070;DHT22;10195;50.868;4.382;2023-11-21T14:19:18;11.40;99.90
20070;DHT22;10195;50.868;4.382;2023-11-21T14:21:47;11.50;99.90
20070;DHT22;10195;50.868;4.382;2023-11-21T14:24:14;11.60;99.90
20070;DHT22;10195;50.868;4.382;2023-11-21T14:26:46;11.70;99.90
20070;DHT22;10195;50.868;4.382;2023-11-21T14:29:13;11.60;99.90
20070;DHT22;10195;50.868;4.382;2023-11-21T14:31:41;11.60;99.90
20070;DHT22;10195;50.868;4.382;2023-11-21T14:34:07;11.40;99.90
20070;DHT22;10195;50.868;4.382;2023-11-21T14:36:34;11.30;99.90
20070;DHT22;10195;50.868;4.382;2023-11-21T14:39:00;11.40;99.90
20070;DHT22;10195;50.868;4.382;2023-11-21T14:41:26;11.60;99.90
20070;DHT22;10195;50.868;4.382;2023-11-21T14:43:53;11.60;99.90
20070;DHT22;10195;50.868;4.382;2023-11-21T14:46:20;11.70;99.90
20070;DHT22;10195;50.868;4.382;2023-11-21T14:48:46;11.50;99.90
20070;DHT22;10195;50.868;4.382;2023-11-21T14:51:28;11.30;99.90
20070;DHT22;10195;50.868;4.382;2023-11-21T14:53:58;11.40;99.90
20070;DHT22;10195;50.868;4.382;2023-11-21T14:56:32;11.30;99.90
20070;DHT22;10195;50.868;4.382;2023-11-21T14:59:02;11.30;99.90
20070;DHT22;10195;50.868;4.382;2023-11-21T15:01:32;11.30;99.90
20070;DHT22;10195;50.868;4.382;2023-11-21T15:04:20;11.30;99.90
20070;DHT22;10195;50.868;4.382;2023-11-21T15:07:01;11.40;99.90
20070;DHT22;10195;50.868;4.382;2023-11-21T15:09:29;11.40;99.90
20070;DHT22;10195;50.868;4.382;2023-11-21T15:11:58;11.40;99.90
20070;DHT22;10195;50.868;4.382;2023-11-21T15:14:32;11.50;99.90
20070;DHT22;10195;50.868;4.382;2023-11-21T15:16:59;11.40;99.90
20070;DHT22;10195;50.868;4.382;2023-11-21T15:19:26;11.20;99.90
20070;DHT22;10195;50.868;4.382;2023-11-21T15:21:53;11.30;99.90
20070;DHT22;10195;50.868;4.382;2023-11-21T15:24:19;11.30;99.90
20070;DHT22;10195;50.868;4.382;2023-11-21T15:26:45;11.40;99.90
20070;DHT22;10195;50.868;4.382;2023-11-21T15:29:10;11.30;99.90
20070;DHT22;10195;50.868;4.382;2023-11-21T15:31:36;11.20;99.90
20070;DHT22;10195;50.868;4.382;2023-11-21T15:34:03;11.20;99.90
20070;DHT22;10195;50.868;4.382;2023-11-21T15:36:31;11.10;99.90
20070;DHT22;10195;50.868;4.382;2023-11-21T15:38:57;11.10;99.90
20070;DHT22;10195;50.868;4.382;2023-11-21T15:41:23;11.10;99.90
20070;DHT22;10195;50.868;4.382;2023-11-21T15:43:49;11.10;99.90
20070;DHT22;10195;50.868;4.382;2023-11-21T15:46:16;11.00;99.90
20070;DHT22;10195;50.868;4.382;2023-11-21T15:48:42;11.00;99.90